Main page
METAR-TAF:

METAR-TAF

Airports :

Mécheria Airport

Mécheria, Algeria

latitude: 34-56N, longitude: 000-26W, elevation: 1149 m

Current weather observation

The report was made 2 hours and 33 minutes ago, at 23:00 UTC
Wind 14 kt from the North/Northeast
Temperature 25°C
Humidity 44%
Pressure 1021 hPa
Visibility: 7000 m
Few clouds at a height of 2600 ft

METAR: DAAY 212300Z 03014KT 7000 FEW026 25/12 Q1021

Time: 02:33 (01:33 UTC)

Forecast

The report was made 2 hours and 33 minutes ago, at 23:00 UTC
Forecast valid from 22 at 00 UTC to 22 at 09 UTC
Wind 14 kt from the East/Northeast
Visibility: 7000 m
Few clouds at a height of 2600 ft
Becoming
from 22 at 04 UTC to 22 at 06 UTC
Wind 20 kt from the South
Visibility: 5000 m

TAF: DAAY 212300Z 2200/2209 06014KT 7000 FEW026 BECMG 2204/2206 17020KT 5000 NSC

Weather observations and forecasts of more than 4000 airports (METAR and TAF reports).

The available stations are represented by yellow and red dots on the map.

Hover mouse over dot to see the name of the station.

Then click to see weather observations and forecasts.

To change the map : click on the green buttons with a black cross to zoom in, on the green button with a dash to zoom out, or on the green arrows for adjacent maps.


METAR-TAF: